AirNav   Duncan Aviation - Near you to keep you flying
 
 377 users online  

06LA Panther Helicopters Inc Heliport
Belle Chasse, Louisiana, USA

GOING TO BELLE CHASSE?


FAA INFORMATION EFFECTIVE 08 SEPTEMBER 2022

Location

FAA Identifier: 06LA
Lat/Long: 29-50-45.7440N 090-01-40.2550W
29-50.762400N 090-01.670917W
29.8460400,-90.0278486
(estimated)
Elevation: 0 ft. / 0 m (estimated)
Variation: 03E (1985)
From city: 3 miles W of BELLE CHASSE, LA
Time zone: UTC -5 (UTC -6 during Standard Time)
Zip code: 70037

Heliport Operations

Heliport use: Private use. Permission required prior to landing
Activation date: 04/1979
Control tower: no
ARTCC: HOUSTON CENTER
FSS: DE RIDDER FLIGHT SERVICE STATION
Attendance: UNATNDD
Wind indicator: yes
Segmented circle: no
Landing fee: yes

Heliport Communications

WX ASOS at NEW (12 nm N): PHONE 504-245-4366
WX ASOS at MSY (15 nm NW): PHONE (504)471-4486

Nearby radio navigation aids

VOR radial/distance  VOR name  Freq  Var
HRVr257/1.3HARVEY VORTAC114.1002E
RQRr114/32.6RESERVE VOR/DME110.8002E

Heliport Services

Fuel available: A

Runway Information

Helipad H1

Dimensions: 39 x 39 ft. / 12 x 12 m
Surface: concrete
Latitude: 29-50.762333N
Longitude: 090-01.671000W
Elevation: -0.1 ft.
Traffic pattern: leftleft

Heliport Ownership and Management from official FAA records

Ownership: Privately-owned
Owner: LANCE PANEPINTO
2017 ENGINEERS ROAD
BELLE CHASSE, LA 70037
Phone 504-394-5803
Manager: PANTHER HELICOPTERS, INC
2017 ENGINEERS ROAD
BELLE CHASSEE, LA 70037
Phone 504-394-5803

Heliport Operational Statistics

Aircraft based on the field: 12
Single engine airplanes: 5
Helicopters: 7
    

Additional Remarks

FOR CD CTC NEW ORLEANS APCH AT 504-471-4350.

Instrument Procedures

There are no published instrument procedures at 06LA.

Some nearby airports with instrument procedures:

KNBG - New Orleans Naval Air Station Joint Reserve Base - Alvin Callender Field (1 nm S)
KNEW - Lakefront Airport (12 nm N)
KMSY - Louis Armstrong New Orleans International Airport (15 nm NW)
KGAO - South Lafourche Leonard Miller Jr.. Airport (27 nm SW)
KASD - Slidell Airport (32 nm N)
 
Loc | Ops | Rwys | IFR | FBO | Links
Com | Nav | Svcs | Stats | Notes
Area around 06LA (Panther Helicopters Inc Heliport)
 
Road maps at: MapQuest Bing Google
 
Aerial photo
No photo
 
Sectional chart

 
Airport distance calculator
Flying to Panther Helicopters Inc Heliport? Find the distance to fly.

From to 06LA

Sunrise and sunset
Times for 02-Oct-2022
 Local
(UTC-5)
 Zulu
(UTC)
Morning civil twilight06:3111:31
Sunrise06:5511:55
Sunset18:4423:44
Evening civil twilight19:0800:08

Current date and time
Zulu (UTC)  02-Oct-2022 09:41:51
Local (UTC-5)  02-Oct-2022 04:41:51
 
METAR
KNBG 
2nm S 
012155Z 34008KT 10SM CLR 28/09 A2994 RMK AO2 SLP136 T02780089 $
K7N0 
7nm NW 
020856Z AUTO 01003KT 10SM CLR 20/13 A3003 RMK AO2 SLP167 6//// T02000128 58001 PNO $
KNEW 
12nm N 
020853Z AUTO 03011KT 10SM CLR 21/13 A3002 RMK AO2 SLP159 T02110128 58001
KMSY 
15nm NW 
020853Z 00000KT 10SM CLR 16/13 A3002 RMK AO2 SLP167 T01560128 58001
TAF
KNBG 
2nm S 
0207/0307 01008KT 9999 SKC QNH3003INS BECMG 0215/0217 VRB05KT 9999 SKC QNH3008INS T16/0212Z T26/0221Z FN00253
KNEW 
12nm N 
020521Z 0206/0306 02012KT P6SM SKC FM021500 02008KT P6SM SKC FM021900 34006KT P6SM SKC FM030100 01015KT P6SM FEW250
KMSY 
15nm NW 
020521Z 0206/0312 VRB04KT P6SM SKC FM021500 01008KT P6SM FEW250 FM030200 36005KT P6SM FEW250
NOTAMs
Click for the latest NOTAMs
NOTAMs are issued by the DoD/FAA and will open in a separate window not controlled by AirNav.

 

 
 

Would you like to see your business listed on this page?

 If your business provides an interesting product or service to pilots, flight crews, aircraft, or users of the Panther Helicopters Inc Heliport, you should consider listing it here.  To start the listing process, click on the button below
 
Add a business
 

Other Pages about Panther Helicopters Inc Heliport

Update a link
 
Copyright © AirNav, LLC. All rights reserved. Privacy Policy  Contact